< < Back
Terminal Aerodrome Forecast


Current Version              Previous Versions:   1  2  3  4  5  6  7  8  9  

Terminal Aerodrome Forecast

792
FTUS42 KMLB 302300
TAFMCO
TAF
KMCO 302328Z 3100/3124 32006KT P6SM FEW045 SCT100 BKN250
     FM310600 21005KT P6SM VCSH SCT035 BKN100
     FM311300 31007KT P6SM SCT030 SCT250=



Latest METAR

212
SAUS70 KWBC 310400 RRF
MTRMCO
METAR KMCO 310353Z 17003KT 10SM SCT044 BKN120 BKN240 22/19 A2990 RMK AO2
SLP123 OCNL LTGIC DSNT SE CB DSNT SE MOV E T02170194


USA.gov is the U.S. government's official web portal to all federal, state and local government web resources and services.